createdAt,value
2023-04-22T00:00:37.785Z,0.00
2023-04-22T00:01:37.540Z,0.00
2023-04-22T00:02:37.680Z,0.00
2023-04-22T00:03:37.609Z,0.00
2023-04-22T00:04:37.960Z,0.00
2023-04-22T00:05:37.503Z,0.00
2023-04-22T00:06:37.624Z,0.00
2023-04-22T00:07:37.434Z,0.00
2023-04-22T00:08:37.833Z,0.00
2023-04-22T00:09:37.731Z,0.00
2023-04-22T00:10:37.502Z,0.00
2023-04-22T00:11:37.410Z,0.00
2023-04-22T00:12:37.467Z,0.00
2023-04-22T00:13:37.400Z,0.00
2023-04-22T00:14:37.404Z,0.00
2023-04-22T00:15:37.364Z,0.00
2023-04-22T00:16:37.417Z,0.00
2023-04-22T00:17:37.480Z,0.00
2023-04-22T00:18:37.322Z,0.00
2023-04-22T00:19:37.635Z,0.00
2023-04-22T00:20:37.476Z,0.00
2023-04-22T00:21:37.288Z,0.00
2023-04-22T00:22:37.279Z,0.00
2023-04-22T00:23:37.287Z,0.00
2023-04-22T00:24:37.285Z,0.00
2023-04-22T00:25:37.267Z,0.00
2023-04-22T00:26:37.255Z,0.00
2023-04-22T00:27:37.320Z,0.00
2023-04-22T00:28:37.207Z,0.00
2023-04-22T00:29:37.513Z,0.00
2023-04-22T00:30:37.207Z,0.00
2023-04-22T00:31:37.398Z,0.00
2023-04-22T00:32:37.284Z,0.00
2023-04-22T00:33:37.170Z,0.00
2023-04-22T00:34:37.230Z,0.00
2023-04-22T00:35:37.168Z,0.00
2023-04-22T00:36:37.806Z,0.00
2023-04-22T00:37:37.162Z,0.00
2023-04-22T00:38:37.198Z,0.00
2023-04-22T00:39:37.397Z,0.00
2023-04-22T00:40:37.137Z,0.00
2023-04-22T00:41:37.089Z,0.00
2023-04-22T00:42:37.087Z,0.00
2023-04-22T00:43:37.096Z,0.00
2023-04-22T00:44:37.128Z,0.00
2023-04-22T00:45:37.315Z,0.00
2023-04-22T00:46:37.191Z,0.00
2023-04-22T00:47:37.043Z,0.00
2023-04-22T00:48:37.067Z,0.00
2023-04-22T00:49:37.163Z,0.00
2023-04-22T00:50:37.073Z,0.00
2023-04-22T00:51:36.991Z,0.00
2023-04-22T00:52:36.957Z,0.00
2023-04-22T00:53:36.966Z,0.00
2023-04-22T00:54:36.986Z,0.00
2023-04-22T00:55:36.980Z,0.00
2023-04-22T00:56:37.048Z,0.00
2023-04-22T00:57:36.966Z,0.00
2023-04-22T00:58:36.934Z,0.00
2023-04-22T00:59:37.075Z,0.00
2023-04-22T01:00:36.966Z,0.00
2023-04-22T01:01:37.021Z,0.00
2023-04-22T01:02:36.914Z,0.00
2023-04-22T01:03:36.974Z,0.00
2023-04-22T01:04:36.863Z,0.00
2023-04-22T01:05:36.891Z,0.00
2023-04-22T01:06:36.866Z,0.00
2023-04-22T01:07:36.833Z,0.00
2023-04-22T01:08:36.806Z,0.00
2023-04-22T01:09:36.843Z,0.00
2023-04-22T01:10:36.778Z,0.00
2023-04-22T01:11:36.771Z,0.00
2023-04-22T01:12:36.787Z,0.00
2023-04-22T01:13:36.785Z,0.00
2023-04-22T01:14:36.736Z,0.00
2023-04-22T01:15:36.749Z,0.00
2023-04-22T01:16:36.760Z,0.00
2023-04-22T01:17:36.769Z,0.00
2023-04-22T01:18:36.705Z,0.00
2023-04-22T01:19:36.903Z,0.00
2023-04-22T01:20:36.704Z,0.00
2023-04-22T01:21:36.691Z,0.00
2023-04-22T01:22:36.711Z,0.00
2023-04-22T01:23:36.668Z,0.00
2023-04-22T01:24:36.679Z,0.00
2023-04-22T01:25:36.644Z,0.00
2023-04-22T01:26:36.622Z,0.00
2023-04-22T01:27:36.630Z,0.00
2023-04-22T01:28:36.632Z,0.00
2023-04-22T01:29:36.674Z,0.00
2023-04-22T01:30:36.564Z,0.00
2023-04-22T01:31:36.624Z,0.00
2023-04-22T01:32:36.637Z,0.00
2023-04-22T01:33:36.547Z,0.00
2023-04-22T01:34:36.584Z,0.00
2023-04-22T01:35:36.542Z,0.00
2023-04-22T01:36:36.559Z,0.00
2023-04-22T01:37:36.536Z,0.00
2023-04-22T01:38:36.493Z,0.00
2023-04-22T01:39:36.524Z,0.00
2023-04-22T01:40:36.546Z,0.00
2023-04-22T01:41:36.474Z,0.00
2023-04-22T01:42:36.514Z,0.00
2023-04-22T01:43:36.476Z,0.00
2023-04-22T01:44:36.429Z,0.00
2023-04-22T01:45:36.440Z,0.00
2023-04-22T01:46:36.571Z,0.00
2023-04-22T01:47:36.478Z,0.00
2023-04-22T01:48:36.400Z,0.00
2023-04-22T01:49:36.368Z,0.00
2023-04-22T01:50:36.401Z,0.00
2023-04-22T01:51:36.394Z,0.00
2023-04-22T01:52:36.349Z,0.00
2023-04-22T01:53:36.338Z,0.00
2023-04-22T01:54:36.315Z,0.00
2023-04-22T01:55:36.363Z,0.00
2023-04-22T01:56:36.330Z,0.00
2023-04-22T01:57:36.295Z,0.00
2023-04-22T01:58:36.301Z,0.00
2023-04-22T01:59:36.296Z,0.00
2023-04-22T02:00:36.272Z,0.00
2023-04-22T02:01:36.382Z,0.00
2023-04-22T02:02:36.344Z,0.00
2023-04-22T02:03:36.331Z,0.00
2023-04-22T02:04:36.260Z,0.00
2023-04-22T02:05:36.208Z,0.00
2023-04-22T02:06:36.227Z,0.00
2023-04-22T02:07:36.196Z,0.00
2023-04-22T02:08:36.209Z,0.00
2023-04-22T02:09:36.192Z,0.00
2023-04-22T02:10:36.176Z,0.00
2023-04-22T02:11:36.170Z,0.00
2023-04-22T02:12:36.163Z,0.00
2023-04-22T02:13:36.193Z,0.00
2023-04-22T02:14:36.124Z,0.00
2023-04-22T02:15:36.163Z,0.00
2023-04-22T02:16:36.098Z,0.00
2023-04-22T02:17:36.120Z,0.00
2023-04-22T02:18:36.098Z,0.00
2023-04-22T02:19:36.119Z,0.00
2023-04-22T02:20:36.079Z,0.00
2023-04-22T02:21:36.058Z,0.00
2023-04-22T02:22:36.065Z,0.00
2023-04-22T02:23:36.027Z,0.00
2023-04-22T02:24:36.034Z,0.00
2023-04-22T02:25:35.995Z,0.00
2023-04-22T02:26:35.998Z,0.00
2023-04-22T02:27:35.994Z,0.00
2023-04-22T02:28:35.981Z,0.00
2023-04-22T02:29:36.015Z,0.00
2023-04-22T02:30:35.971Z,0.00
2023-04-22T02:31:35.998Z,0.00
2023-04-22T02:32:35.939Z,0.00
2023-04-22T02:33:35.959Z,0.00
2023-04-22T02:34:35.932Z,0.00
2023-04-22T02:35:35.900Z,0.00
2023-04-22T02:36:35.899Z,0.00
2023-04-22T02:37:35.858Z,0.00
2023-04-22T02:38:35.859Z,0.00
2023-04-22T02:39:35.878Z,0.00
2023-04-22T02:40:35.839Z,0.00
2023-04-22T02:41:35.838Z,0.00
2023-04-22T02:42:35.844Z,0.00
2023-04-22T02:43:35.854Z,0.00
2023-04-22T02:44:35.799Z,0.00
2023-04-22T02:45:35.817Z,0.00
2023-04-22T02:46:35.829Z,0.00
2023-04-22T02:47:35.816Z,0.00
2023-04-22T02:48:35.777Z,0.00
2023-04-22T02:49:35.781Z,0.00
2023-04-22T02:50:35.725Z,0.00
2023-04-22T02:51:35.711Z,0.00
2023-04-22T02:52:35.734Z,0.00
2023-04-22T02:53:35.716Z,0.00
2023-04-22T02:54:35.693Z,0.00
2023-04-22T02:55:35.681Z,0.00
2023-04-22T02:56:35.682Z,0.00
2023-04-22T02:57:35.725Z,0.00
2023-04-22T02:58:35.688Z,0.00
2023-04-22T02:59:35.679Z,0.00
2023-04-22T03:00:35.707Z,0.00
2023-04-22T03:01:35.618Z,0.00
2023-04-22T03:02:35.757Z,0.00
2023-04-22T03:03:35.747Z,0.00
2023-04-22T03:04:35.694Z,0.00
2023-04-22T03:05:35.607Z,0.00
2023-04-22T03:06:35.600Z,0.00
2023-04-22T03:07:35.544Z,1.00
2023-04-22T03:08:35.543Z,0.00
2023-04-22T03:09:35.555Z,0.00
2023-04-22T03:10:35.568Z,0.00
2023-04-22T03:11:35.545Z,0.00
2023-04-22T03:12:35.538Z,0.00
2023-04-22T03:13:35.478Z,1.00
2023-04-22T03:14:35.432Z,1.00
2023-04-22T03:15:35.483Z,1.00
2023-04-22T03:16:35.482Z,1.00
2023-04-22T03:17:35.519Z,0.00
2023-04-22T03:18:35.453Z,0.00
2023-04-22T03:19:35.396Z,2.00
2023-04-22T03:20:35.385Z,1.00
2023-04-22T03:21:35.419Z,1.00
2023-04-22T03:22:35.411Z,0.00
2023-04-22T03:23:35.364Z,2.00
2023-04-22T03:24:35.356Z,1.00
2023-04-22T03:25:35.458Z,2.00
2023-04-22T03:26:35.340Z,3.00
2023-04-22T03:27:35.332Z,5.00
2023-04-22T03:28:35.300Z,4.00
2023-04-22T03:29:35.321Z,2.00
2023-04-22T03:30:35.278Z,5.00
2023-04-22T03:31:35.315Z,5.00
2023-04-22T03:32:35.280Z,8.00
2023-04-22T03:33:35.252Z,9.00
2023-04-22T03:34:37.043Z,7.00
2023-04-22T03:35:35.230Z,9.00
2023-04-22T03:36:35.201Z,11.00
2023-04-22T03:37:35.195Z,14.00
2023-04-22T03:38:35.181Z,16.00
2023-04-22T03:39:35.206Z,17.00
2023-04-22T03:40:35.178Z,20.00
2023-04-22T03:41:35.184Z,26.00
2023-04-22T03:42:35.166Z,32.00
2023-04-22T03:43:35.152Z,35.00
2023-04-22T03:44:35.155Z,44.00
2023-04-22T03:45:35.159Z,48.00
2023-04-22T03:46:35.158Z,55.00
2023-04-22T03:47:35.176Z,70.00
2023-04-22T03:48:35.087Z,69.00
2023-04-22T03:49:35.073Z,80.00
2023-04-22T03:50:35.073Z,88.00
2023-04-22T03:51:35.077Z,101.00
2023-04-22T03:52:35.069Z,108.00
2023-04-22T03:53:35.056Z,121.00
2023-04-22T03:54:35.010Z,139.00
2023-04-22T03:55:35.097Z,152.00
2023-04-22T03:56:35.016Z,167.00
2023-04-22T03:57:35.002Z,182.00
2023-04-22T03:58:34.986Z,199.00
2023-04-22T03:59:34.951Z,211.00
2023-04-22T04:00:35.065Z,227.00
2023-04-22T04:01:34.962Z,242.00
2023-04-22T04:02:35.069Z,260.00
2023-04-22T04:03:35.088Z,277.00
2023-04-22T04:04:35.207Z,302.00
2023-04-22T04:05:35.073Z,322.00
2023-04-22T04:06:34.965Z,349.00
2023-04-22T04:07:35.202Z,367.00
2023-04-22T04:08:34.897Z,394.00
2023-04-22T04:09:34.909Z,419.00
2023-04-22T04:10:34.912Z,444.00
2023-04-22T04:11:34.855Z,471.00
2023-04-22T04:12:34.864Z,499.00
2023-04-22T04:13:34.904Z,525.00
2023-04-22T04:14:34.863Z,549.00
2023-04-22T04:15:34.884Z,584.00
2023-04-22T04:16:34.997Z,616.00
2023-04-22T04:17:35.000Z,646.00
2023-04-22T04:18:34.759Z,680.00
2023-04-22T04:19:34.775Z,709.00
2023-04-22T04:20:34.778Z,746.00
2023-04-22T04:21:34.776Z,774.00
2023-04-22T04:22:34.761Z,815.00
2023-04-22T04:23:34.731Z,847.00
2023-04-22T04:24:34.725Z,881.00
2023-04-22T04:25:34.745Z,917.00
2023-04-22T04:26:34.673Z,958.00
2023-04-22T04:27:34.663Z,989.00
2023-04-22T04:28:34.735Z,1032.00
2023-04-22T04:29:34.721Z,1065.00
2023-04-22T04:30:34.643Z,1106.00
2023-04-22T04:31:34.689Z,1138.00
2023-04-22T04:32:34.664Z,1181.00
2023-04-22T04:33:34.629Z,1226.00
2023-04-22T04:34:34.693Z,1264.00
2023-04-22T04:35:34.673Z,1299.00
2023-04-22T04:36:34.694Z,1331.00
2023-04-22T04:37:34.686Z,1372.00
2023-04-22T04:38:34.579Z,1416.00
2023-04-22T04:39:34.565Z,1438.00
2023-04-22T04:40:34.590Z,1493.00
2023-04-22T04:41:34.642Z,1510.00
2023-04-22T04:42:34.539Z,1563.00
2023-04-22T04:43:34.509Z,1601.00
2023-04-22T04:44:34.587Z,1636.00
2023-04-22T04:45:34.605Z,1664.00
2023-04-22T04:46:34.496Z,1725.00
2023-04-22T04:47:34.495Z,1754.00
2023-04-22T04:48:34.457Z,1788.00
2023-04-22T04:49:34.464Z,1848.00
2023-04-22T04:50:34.545Z,1832.00
2023-04-22T04:51:34.449Z,1916.00
2023-04-22T04:52:34.403Z,1912.00
2023-04-22T04:53:34.442Z,1947.00
2023-04-22T04:54:34.401Z,2080.00
2023-04-22T04:55:34.455Z,1959.00
2023-04-22T04:56:34.365Z,2154.00
2023-04-22T04:57:35.289Z,832.00
2023-04-22T04:58:34.398Z,2776.00
2023-04-22T04:59:34.371Z,3701.00
2023-04-22T05:00:34.351Z,6973.00
2023-04-22T05:01:34.379Z,6623.00
2023-04-22T05:02:34.463Z,3036.00
2023-04-22T05:03:34.614Z,6650.00
2023-04-22T05:04:34.593Z,2257.00
2023-04-22T05:05:34.281Z,2834.00
2023-04-22T05:06:34.301Z,3583.00
2023-04-22T05:07:34.356Z,5426.00
2023-04-22T05:08:34.272Z,6532.00
2023-04-22T05:09:34.269Z,3072.00
2023-04-22T05:10:34.214Z,3402.00
2023-04-22T05:11:34.215Z,6413.00
2023-04-22T05:12:34.560Z,5475.00
2023-04-22T05:13:34.206Z,4184.00
2023-04-22T05:14:34.214Z,2471.00
2023-04-22T05:15:34.188Z,2771.00
2023-04-22T05:16:34.201Z,4504.00
2023-04-22T05:17:34.220Z,3804.00
2023-04-22T05:18:34.165Z,2880.00
2023-04-22T05:19:34.165Z,4945.00
2023-04-22T05:20:36.142Z,6995.00
2023-04-22T05:21:34.161Z,3591.00
2023-04-22T05:22:34.089Z,3746.00
2023-04-22T05:23:34.114Z,3717.00
2023-04-22T05:24:34.090Z,2533.00
2023-04-22T05:25:34.117Z,4623.00
2023-04-22T05:26:34.085Z,5319.00
2023-04-22T05:27:34.213Z,4315.00
2023-04-22T05:28:34.084Z,5225.00
2023-04-22T05:29:34.069Z,5461.00
2023-04-22T05:30:34.037Z,4604.00
2023-04-22T05:31:34.103Z,4978.00
2023-04-22T05:32:34.217Z,5262.00
2023-04-22T05:33:33.978Z,4338.00
2023-04-22T05:34:34.053Z,4852.00
2023-04-22T05:35:33.969Z,6466.00
2023-04-22T05:36:33.988Z,5965.00
2023-04-22T05:37:34.002Z,5022.00
2023-04-22T05:38:34.023Z,5630.00
2023-04-22T05:39:33.961Z,5901.00
2023-04-22T05:40:33.947Z,5430.00
2023-04-22T05:41:33.973Z,6068.00
2023-04-22T05:42:33.905Z,6372.00
2023-04-22T05:43:33.897Z,5669.00
2023-04-22T05:44:33.896Z,5731.00
2023-04-22T05:45:33.955Z,6578.00
2023-04-22T05:46:33.887Z,7085.00
2023-04-22T05:47:33.936Z,7040.00
2023-04-22T05:48:33.900Z,5188.00
2023-04-22T05:49:33.826Z,4418.00
2023-04-22T05:50:33.805Z,6645.00
2023-04-22T05:51:33.888Z,8761.00
2023-04-22T05:52:33.780Z,8522.00
2023-04-22T05:53:33.815Z,6309.00
2023-04-22T05:54:33.813Z,5287.00
2023-04-22T05:55:33.834Z,7081.00
2023-04-22T05:56:33.803Z,7853.00
2023-04-22T05:57:33.796Z,6825.00
2023-04-22T05:58:33.818Z,6469.00
2023-04-22T05:59:33.805Z,7272.00
2023-04-22T06:00:33.793Z,9299.00
2023-04-22T06:01:33.810Z,9200.00
2023-04-22T06:02:33.774Z,8888.00
2023-04-22T06:03:33.929Z,6044.00
2023-04-22T06:04:37.169Z,4839.00
2023-04-22T06:05:33.663Z,8871.00
2023-04-22T06:06:33.667Z,18335.00
2023-04-22T06:07:33.645Z,24142.00
2023-04-22T06:08:33.675Z,22868.00
2023-04-22T06:09:33.634Z,18059.00
2023-04-22T06:10:33.797Z,12307.00
2023-04-22T06:11:33.616Z,12791.00
2023-04-22T06:12:33.807Z,13062.00
2023-04-22T06:13:33.577Z,8294.00
2023-04-22T06:14:33.914Z,7087.00
2023-04-22T06:15:33.638Z,7041.00
2023-04-22T06:16:33.534Z,11351.00
2023-04-22T06:17:33.615Z,13309.00
2023-04-22T06:18:35.203Z,11335.00
2023-04-22T06:19:33.521Z,9295.00
2023-04-22T06:20:33.535Z,7628.00
2023-04-22T06:21:33.519Z,6865.00
2023-04-22T06:22:33.571Z,7040.00
2023-04-22T06:23:33.467Z,7255.00
2023-04-22T06:24:33.528Z,6556.00
2023-04-22T06:25:33.494Z,7191.00
2023-04-22T06:26:33.480Z,8290.00
2023-04-22T06:27:33.470Z,8350.00
2023-04-22T06:28:33.494Z,7596.00
2023-04-22T06:29:33.404Z,6889.00
2023-04-22T06:30:33.486Z,6605.00
2023-04-22T06:31:33.443Z,6448.00
2023-04-22T06:32:33.396Z,6469.00
2023-04-22T06:33:34.110Z,6461.00
2023-04-22T06:34:33.352Z,6299.00
2023-04-22T06:35:33.380Z,5831.00
2023-04-22T06:36:33.355Z,5722.00
2023-04-22T06:37:33.325Z,5950.00
2023-04-22T06:38:33.365Z,5985.00
2023-04-22T06:39:33.284Z,5755.00
2023-04-22T06:40:33.420Z,5596.00
2023-04-22T06:41:33.275Z,5997.00
2023-04-22T06:42:33.266Z,6076.00
2023-04-22T06:43:33.299Z,5877.00
2023-04-22T06:44:33.366Z,5717.00
2023-04-22T06:45:33.213Z,5743.00
2023-04-22T06:46:33.337Z,5733.00
2023-04-22T06:47:33.236Z,5726.00
2023-04-22T06:48:33.258Z,5637.00
2023-04-22T06:49:33.199Z,5659.00
2023-04-22T06:50:33.181Z,5785.00
2023-04-22T06:51:33.335Z,5792.00
2023-04-22T06:52:33.155Z,5250.00
2023-04-22T06:53:33.223Z,4686.00
2023-04-22T06:54:33.173Z,4673.00
2023-04-22T06:55:33.134Z,4721.00
2023-04-22T06:56:33.144Z,4701.00
2023-04-22T06:57:33.142Z,4695.00
2023-04-22T06:58:33.161Z,4714.00
2023-04-22T06:59:33.067Z,4727.00
2023-04-22T07:00:33.080Z,4747.00
2023-04-22T07:01:33.095Z,4793.00
2023-04-22T07:02:33.121Z,4801.00
2023-04-22T07:03:33.266Z,4831.00
2023-04-22T07:04:33.082Z,4797.00
2023-04-22T07:05:33.053Z,4801.00
2023-04-22T07:06:33.034Z,4776.00
2023-04-22T07:07:32.997Z,4760.00
2023-04-22T07:08:33.032Z,4811.00
2023-04-22T07:09:33.013Z,4798.00
2023-04-22T07:10:33.023Z,4735.00
2023-04-22T07:11:32.979Z,4753.00
2023-04-22T07:12:33.020Z,4770.00
2023-04-22T07:13:32.926Z,4760.00
2023-04-22T07:14:32.918Z,4784.00
2023-04-22T07:15:32.902Z,4831.00
2023-04-22T07:16:33.065Z,4841.00
2023-04-22T07:17:33.038Z,4828.00
2023-04-22T07:18:32.929Z,4920.00
2023-04-22T07:19:33.951Z,4799.00
2023-04-22T07:20:32.925Z,4741.00
2023-04-22T07:21:32.953Z,4820.00
2023-04-22T07:22:32.825Z,4870.00
2023-04-22T07:23:32.868Z,4811.00
2023-04-22T07:24:32.941Z,4869.00
2023-04-22T07:25:32.886Z,4970.00
2023-04-22T07:26:32.807Z,4884.00
2023-04-22T07:27:33.209Z,4934.00
2023-04-22T07:28:32.817Z,4887.00
2023-04-22T07:29:32.754Z,4923.00
2023-04-22T07:30:32.811Z,4998.00
2023-04-22T07:31:32.854Z,4993.00
2023-04-22T07:32:32.833Z,4974.00
2023-04-22T07:33:32.726Z,4993.00
2023-04-22T07:34:32.719Z,5084.00
2023-04-22T07:35:32.722Z,5095.00
2023-04-22T07:36:32.728Z,5122.00
2023-04-22T07:37:32.666Z,5125.00
2023-04-22T07:38:32.710Z,5159.00
2023-04-22T07:39:34.228Z,5184.00
2023-04-22T07:40:32.651Z,5242.00
2023-04-22T07:41:32.648Z,5154.00
2023-04-22T07:42:32.854Z,5168.00
2023-04-22T07:43:32.637Z,5175.00
2023-04-22T07:44:32.633Z,5219.00
2023-04-22T07:45:32.653Z,5202.00
2023-04-22T07:46:32.644Z,5165.00
2023-04-22T07:47:32.735Z,5225.00
2023-04-22T07:48:32.645Z,5275.00
2023-04-22T07:49:32.587Z,5254.00
2023-04-22T07:50:32.535Z,5329.00
2023-04-22T07:51:32.538Z,5347.00
2023-04-22T07:52:32.567Z,5366.00
2023-04-22T07:53:32.522Z,5387.00
2023-04-22T07:54:32.753Z,5456.00
2023-04-22T07:55:32.488Z,5384.00
2023-04-22T07:56:32.531Z,5422.00
2023-04-22T07:57:32.497Z,5485.00
2023-04-22T07:58:32.526Z,5574.00
2023-04-22T07:59:32.451Z,5495.00
2023-04-22T08:00:32.498Z,5564.00
2023-04-22T08:01:32.443Z,5551.00
2023-04-22T08:02:32.537Z,5576.00
2023-04-22T08:03:32.606Z,5544.00
2023-04-22T08:04:32.660Z,5619.00
2023-04-22T08:05:32.401Z,5632.00
2023-04-22T08:06:32.462Z,5736.00
2023-04-22T08:07:33.680Z,5779.00
2023-04-22T08:08:32.531Z,5755.00
2023-04-22T08:09:32.706Z,5719.00
2023-04-22T08:10:32.327Z,5738.00
2023-04-22T08:11:32.317Z,5759.00
2023-04-22T08:12:32.365Z,5826.00
2023-04-22T08:13:32.300Z,5792.00
2023-04-22T08:14:32.323Z,5827.00
2023-04-22T08:15:32.292Z,5837.00
2023-04-22T08:16:32.301Z,5898.00
2023-04-22T08:17:32.350Z,5912.00
2023-04-22T08:18:32.291Z,5992.00
2023-04-22T08:19:32.283Z,5987.00
2023-04-22T08:20:32.269Z,5985.00
2023-04-22T08:21:32.383Z,6007.00
2023-04-22T08:22:32.238Z,6024.00
2023-04-22T08:23:32.234Z,6072.00
2023-04-22T08:24:32.218Z,6115.00
2023-04-22T08:25:32.216Z,6125.00
2023-04-22T08:26:32.200Z,6142.00
2023-04-22T08:27:32.203Z,6103.00
2023-04-22T08:28:32.176Z,6159.00
2023-04-22T08:29:32.138Z,6297.00
2023-04-22T08:30:32.155Z,6243.00
2023-04-22T08:31:32.166Z,6286.00
2023-04-22T08:32:32.119Z,6223.00
2023-04-22T08:33:32.119Z,6235.00
2023-04-22T08:34:32.075Z,6245.00
2023-04-22T08:35:32.094Z,6279.00
2023-04-22T08:36:32.224Z,6271.00
2023-04-22T08:37:32.055Z,6378.00
2023-04-22T08:38:32.173Z,6363.00
2023-04-22T08:39:33.268Z,6316.00
2023-04-22T08:40:32.125Z,6409.00
2023-04-22T08:41:32.041Z,6431.00
2023-04-22T08:42:32.036Z,6446.00
2023-04-22T08:43:31.987Z,6522.00
2023-04-22T08:44:32.008Z,6490.00
2023-04-22T08:45:31.988Z,6508.00
2023-04-22T08:46:32.034Z,6542.00
2023-04-22T08:47:31.959Z,6593.00
2023-04-22T08:48:31.957Z,6604.00
2023-04-22T08:49:31.955Z,6642.00
2023-04-22T08:50:32.008Z,6627.00
2023-04-22T08:51:31.884Z,6641.00
2023-04-22T08:52:31.914Z,6703.00
2023-04-22T08:53:31.897Z,6676.00
2023-04-22T08:54:31.904Z,6692.00
2023-04-22T08:55:31.916Z,6701.00
2023-04-22T08:56:31.843Z,6741.00
2023-04-22T08:57:31.948Z,6771.00
2023-04-22T08:58:31.880Z,6778.00
2023-04-22T08:59:31.857Z,6828.00
2023-04-22T09:00:31.933Z,6827.00
2023-04-22T09:01:31.845Z,6840.00
2023-04-22T09:02:31.835Z,6860.00
2023-04-22T09:03:31.859Z,6852.00
2023-04-22T09:04:31.872Z,6903.00
2023-04-22T09:05:31.781Z,6961.00
2023-04-22T09:06:31.765Z,7038.00
2023-04-22T09:07:31.823Z,6941.00
2023-04-22T09:08:31.759Z,6994.00
2023-04-22T09:09:32.413Z,6943.00
2023-04-22T09:10:34.005Z,6985.00
2023-04-22T09:11:31.718Z,6990.00
2023-04-22T09:12:31.673Z,7014.00
2023-04-22T09:13:31.719Z,7033.00
2023-04-22T09:14:31.689Z,6946.00
2023-04-22T09:15:31.655Z,7027.00
2023-04-22T09:16:31.686Z,7101.00
2023-04-22T09:17:31.709Z,7084.00
2023-04-22T09:18:31.676Z,7127.00
2023-04-22T09:19:31.630Z,7173.00
2023-04-22T09:20:31.616Z,7179.00
2023-04-22T09:21:31.575Z,7243.00
2023-04-22T09:22:31.573Z,7298.00
2023-04-22T09:23:31.619Z,7320.00
2023-04-22T09:24:31.576Z,7352.00
2023-04-22T09:25:31.585Z,7335.00
2023-04-22T09:26:31.577Z,7342.00
2023-04-22T09:27:31.611Z,7374.00
2023-04-22T09:28:31.512Z,7410.00
2023-04-22T09:29:31.588Z,7431.00
2023-04-22T09:30:31.567Z,7471.00
2023-04-22T09:31:31.591Z,7525.00
2023-04-22T09:32:31.588Z,7514.00
2023-04-22T09:33:31.471Z,7459.00
2023-04-22T09:34:31.489Z,7476.00
2023-04-22T09:35:31.488Z,7491.00
2023-04-22T09:36:31.429Z,7529.00
2023-04-22T09:37:42.857Z,7543.00
2023-04-22T09:38:32.427Z,7577.00
2023-04-22T09:39:32.016Z,7598.00
2023-04-22T09:40:31.459Z,7652.00
2023-04-22T09:41:31.474Z,7654.00
2023-04-22T09:42:31.397Z,7695.00
2023-04-22T09:43:31.447Z,7694.00
2023-04-22T09:44:31.388Z,7715.00
2023-04-22T09:45:31.592Z,7735.00
2023-04-22T09:46:31.332Z,7764.00
2023-04-22T09:47:31.362Z,7773.00
2023-04-22T09:48:31.315Z,7812.00
2023-04-22T09:49:31.437Z,7845.00
2023-04-22T09:50:31.350Z,7762.00
2023-04-22T09:51:31.279Z,7893.00
2023-04-22T09:52:31.320Z,7794.00
2023-04-22T09:53:31.419Z,7223.00
2023-04-22T09:54:31.355Z,7888.00
2023-04-22T09:55:31.250Z,7910.00
2023-04-22T09:56:31.312Z,7953.00
2023-04-22T09:57:31.212Z,7971.00
2023-04-22T09:58:31.330Z,7996.00
2023-04-22T09:59:31.272Z,7988.00
2023-04-22T10:00:31.240Z,8036.00
2023-04-22T10:01:31.230Z,8011.00
2023-04-22T10:02:31.255Z,8061.00
2023-04-22T10:03:31.213Z,8067.00
2023-04-22T10:04:31.284Z,8090.00
2023-04-22T10:05:31.135Z,8103.00
2023-04-22T10:06:31.133Z,8153.00
2023-04-22T10:07:31.189Z,8115.00
2023-04-22T10:08:31.101Z,8118.00
2023-04-22T10:09:32.419Z,8127.00
2023-04-22T10:10:31.178Z,8142.00
2023-04-22T10:11:31.142Z,8168.00
2023-04-22T10:12:35.757Z,8187.00
2023-04-22T10:13:31.101Z,8178.00
2023-04-22T10:14:31.084Z,8208.00
2023-04-22T10:15:31.048Z,8246.00
2023-04-22T10:16:31.072Z,8313.00
2023-04-22T10:17:31.107Z,8290.00
2023-04-22T10:18:31.012Z,8313.00
2023-04-22T10:19:31.736Z,8309.00
2023-04-22T10:20:30.998Z,8309.00
2023-04-22T10:21:30.997Z,8324.00
2023-04-22T10:22:31.008Z,8369.00
2023-04-22T10:23:31.004Z,8395.00
2023-04-22T10:24:30.940Z,8402.00
2023-04-22T10:25:31.102Z,8378.00
2023-04-22T10:26:31.071Z,8346.00
2023-04-22T10:27:30.901Z,8351.00
2023-04-22T10:28:30.879Z,8393.00
2023-04-22T10:29:31.021Z,8330.00
2023-04-22T10:30:30.924Z,8452.00
2023-04-22T10:31:30.956Z,8470.00
2023-04-22T10:32:31.031Z,8465.00
2023-04-22T10:33:31.903Z,8471.00
2023-04-22T10:34:30.842Z,8410.00
2023-04-22T10:35:30.834Z,8539.00
2023-04-22T10:36:30.859Z,8592.00
2023-04-22T10:37:32.348Z,8617.00
2023-04-22T10:38:30.770Z,8545.00
2023-04-22T10:39:31.583Z,8582.00
2023-04-22T10:40:30.789Z,8712.00
2023-04-22T10:41:30.807Z,8641.00
2023-04-22T10:42:30.858Z,8719.00
2023-04-22T10:43:32.303Z,8562.00
2023-04-22T10:44:30.815Z,8764.00
2023-04-22T10:45:30.727Z,8628.00
2023-04-22T10:46:30.943Z,8759.00
2023-04-22T10:47:30.806Z,8687.00
2023-04-22T10:48:30.697Z,8421.00
2023-04-22T10:49:30.699Z,8403.00
2023-04-22T10:50:30.733Z,8578.00
2023-04-22T10:51:30.707Z,8773.00
2023-04-22T10:52:30.785Z,8788.00
2023-04-22T10:53:31.392Z,8824.00
2023-04-22T10:54:32.205Z,8795.00
2023-04-22T10:55:30.677Z,8824.00
2023-04-22T10:56:31.390Z,8856.00
2023-04-22T10:57:30.596Z,8810.00
2023-04-22T10:58:30.593Z,8793.00
2023-04-22T10:59:30.561Z,8841.00
2023-04-22T11:00:41.870Z,8988.00
2023-04-22T11:01:31.708Z,8811.00
2023-04-22T11:02:30.957Z,8914.00
2023-04-22T11:03:30.992Z,8807.00
2023-04-22T11:04:30.587Z,8971.00
2023-04-22T11:05:30.549Z,8833.00
2023-04-22T11:06:30.548Z,8823.00
2023-04-22T11:07:30.515Z,8685.00
2023-04-22T11:08:30.521Z,8729.00
2023-04-22T11:09:31.623Z,8921.00
2023-04-22T11:10:30.475Z,8752.00
2023-04-22T11:11:30.489Z,8740.00
2023-04-22T11:12:30.509Z,8757.00
2023-04-22T11:13:30.452Z,8971.00
2023-04-22T11:14:30.424Z,9106.00
2023-04-22T11:15:31.375Z,9002.00
2023-04-22T11:16:30.434Z,8973.00
2023-04-22T11:17:30.420Z,9021.00
2023-04-22T11:18:30.422Z,8881.00
2023-04-22T11:19:30.387Z,8992.00
2023-04-22T11:20:30.471Z,8968.00
2023-04-22T11:21:30.499Z,9089.00
2023-04-22T11:22:30.379Z,8975.00
2023-04-22T11:23:30.347Z,8983.00
2023-04-22T11:24:30.347Z,9062.00
2023-04-22T11:25:30.323Z,9004.00
2023-04-22T11:26:30.324Z,9076.00
2023-04-22T11:27:30.336Z,9144.00
2023-04-22T11:28:30.337Z,9146.00
2023-04-22T11:29:30.295Z,8881.00
2023-04-22T11:30:30.402Z,8969.00
2023-04-22T11:31:30.288Z,8946.00
2023-04-22T11:32:30.316Z,8953.00
2023-04-22T11:33:30.232Z,9008.00
2023-04-22T11:34:30.211Z,9018.00
2023-04-22T11:35:30.223Z,9068.00
2023-04-22T11:36:30.184Z,8945.00
2023-04-22T11:37:30.189Z,9020.00
2023-04-22T11:38:30.279Z,9029.00
2023-04-22T11:39:30.336Z,9193.00
2023-04-22T11:40:32.099Z,8899.00
2023-04-22T11:41:30.187Z,8860.00
2023-04-22T11:42:30.224Z,8875.00
2023-04-22T11:43:30.168Z,8949.00
2023-04-22T11:44:30.145Z,9138.00
2023-04-22T11:45:30.199Z,9127.00
2023-04-22T11:46:30.182Z,9193.00
2023-04-22T11:47:30.128Z,9038.00
2023-04-22T11:48:30.104Z,9121.00
2023-04-22T11:49:30.061Z,9085.00
2023-04-22T11:50:30.074Z,9119.00
2023-04-22T11:51:30.074Z,9272.00
2023-04-22T11:52:30.093Z,9146.00
2023-04-22T11:53:30.070Z,9103.00
2023-04-22T11:54:30.040Z,9358.00
2023-04-22T11:55:29.998Z,9118.00
2023-04-22T11:56:30.006Z,9158.00
2023-04-22T11:57:31.220Z,9238.00
2023-04-22T11:58:29.990Z,9382.00
2023-04-22T11:59:29.965Z,9246.00
2023-04-22T12:00:30.084Z,9063.00
2023-04-22T12:01:29.965Z,9143.00
2023-04-22T12:02:30.007Z,9035.00
2023-04-22T12:03:30.197Z,9052.00
2023-04-22T12:04:29.952Z,9054.00
2023-04-22T12:05:30.047Z,9118.00
2023-04-22T12:06:29.925Z,9056.00
2023-04-22T12:07:29.875Z,8948.00
2023-04-22T12:08:29.939Z,8945.00
2023-04-22T12:09:30.885Z,9025.00
2023-04-22T12:10:29.851Z,9012.00
2023-04-22T12:11:29.844Z,9033.00
2023-04-22T12:12:29.912Z,8987.00
2023-04-22T12:13:29.825Z,9021.00
2023-04-22T12:14:29.857Z,9077.00
2023-04-22T12:15:29.821Z,9174.00
2023-04-22T12:16:29.806Z,9235.00
2023-04-22T12:17:29.805Z,9066.00
2023-04-22T12:18:29.761Z,9220.00
2023-04-22T12:19:29.771Z,9165.00
2023-04-22T12:20:29.755Z,9444.00
2023-04-22T12:21:29.762Z,9213.00
2023-04-22T12:22:29.738Z,8821.00
2023-04-22T12:23:29.700Z,8900.00
2023-04-22T12:24:29.689Z,8937.00
2023-04-22T12:25:29.827Z,9175.00
2023-04-22T12:26:29.675Z,9050.00
2023-04-22T12:27:29.672Z,9103.00